sensor_id;sensor_type;location;lat;lon;timestamp;P1;durP1;ratioP1;P2;durP2;ratioP2
58752;SDS011;44525;46.052;13.610;2024-01-10T00:00:10;17.15;;;8.05;;
58752;SDS011;44525;46.052;13.610;2024-01-10T00:02:36;15.25;;;8.02;;
58752;SDS011;44525;46.052;13.610;2024-01-10T00:05:01;17.65;;;8.38;;
58752;SDS011;44525;46.052;13.610;2024-01-10T00:07:26;15.63;;;8.40;;
58752;SDS011;44525;46.052;13.610;2024-01-10T00:09:52;13.73;;;7.53;;
58752;SDS011;44525;46.052;13.610;2024-01-10T00:12:17;13.98;;;8.02;;
58752;SDS011;44525;46.052;13.610;2024-01-10T00:14:43;15.93;;;8.48;;
58752;SDS011;44525;46.052;13.610;2024-01-10T00:17:08;13.30;;;7.75;;
58752;SDS011;44525;46.052;13.610;2024-01-10T00:19:34;17.33;;;8.30;;
58752;SDS011;44525;46.052;13.610;2024-01-10T00:21:59;13.65;;;7.35;;
58752;SDS011;44525;46.052;13.610;2024-01-10T00:24:24;16.98;;;7.38;;
58752;SDS011;44525;46.052;13.610;2024-01-10T00:26:50;18.48;;;7.95;;
58752;SDS011;44525;46.052;13.610;2024-01-10T00:29:15;13.10;;;7.65;;
58752;SDS011;44525;46.052;13.610;2024-01-10T00:31:41;13.05;;;7.18;;
58752;SDS011;44525;46.052;13.610;2024-01-10T00:34:06;16.05;;;7.78;;
58752;SDS011;44525;46.052;13.610;2024-01-10T00:36:31;16.45;;;7.93;;
58752;SDS011;44525;46.052;13.610;2024-01-10T00:38:57;17.83;;;8.00;;
58752;SDS011;44525;46.052;13.610;2024-01-10T00:41:22;14.63;;;7.90;;
58752;SDS011;44525;46.052;13.610;2024-01-10T00:43:47;15.38;;;8.25;;
58752;SDS011;44525;46.052;13.610;2024-01-10T00:46:13;15.23;;;7.50;;
58752;SDS011;44525;46.052;13.610;2024-01-10T00:48:38;18.40;;;8.95;;
58752;SDS011;44525;46.052;13.610;2024-01-10T00:51:04;14.77;;;8.60;;
58752;SDS011;44525;46.052;13.610;2024-01-10T00:53:33;15.52;;;7.68;;
58752;SDS011;44525;46.052;13.610;2024-01-10T00:56:03;13.05;;;7.57;;
58752;SDS011;44525;46.052;13.610;2024-01-10T00:58:29;13.48;;;7.82;;
58752;SDS011;44525;46.052;13.610;2024-01-10T01:00:55;14.23;;;7.30;;
58752;SDS011;44525;46.052;13.610;2024-01-10T01:03:20;16.63;;;8.90;;
58752;SDS011;44525;46.052;13.610;2024-01-10T01:05:45;16.30;;;8.25;;
58752;SDS011;44525;46.052;13.610;2024-01-10T01:08:11;13.93;;;7.50;;
58752;SDS011;44525;46.052;13.610;2024-01-10T01:10:36;20.27;;;8.00;;
58752;SDS011;44525;46.052;13.610;2024-01-10T01:13:01;13.98;;;7.95;;
58752;SDS011;44525;46.052;13.610;2024-01-10T01:15:28;17.80;;;8.23;;
58752;SDS011;44525;46.052;13.610;2024-01-10T01:17:53;17.42;;;8.07;;
58752;SDS011;44525;46.052;13.610;2024-01-10T01:20:18;13.48;;;7.20;;
58752;SDS011;44525;46.052;13.610;2024-01-10T01:22:44;15.98;;;7.70;;
58752;SDS011;44525;46.052;13.610;2024-01-10T01:25:09;14.57;;;7.60;;
58752;SDS011;44525;46.052;13.610;2024-01-10T01:27:35;14.10;;;8.10;;
58752;SDS011;44525;46.052;13.610;2024-01-10T01:30:00;16.17;;;8.13;;
58752;SDS011;44525;46.052;13.610;2024-01-10T01:32:25;15.10;;;7.80;;
58752;SDS011;44525;46.052;13.610;2024-01-10T01:34:51;16.58;;;8.23;;
58752;SDS011;44525;46.052;13.610;2024-01-10T01:37:16;16.23;;;8.10;;
58752;SDS011;44525;46.052;13.610;2024-01-10T01:39:41;12.73;;;7.07;;
58752;SDS011;44525;46.052;13.610;2024-01-10T01:42:07;15.88;;;8.48;;
58752;SDS011;44525;46.052;13.610;2024-01-10T01:44:32;17.92;;;7.85;;
58752;SDS011;44525;46.052;13.610;2024-01-10T01:46:58;16.52;;;8.52;;
58752;SDS011;44525;46.052;13.610;2024-01-10T01:49:24;15.73;;;8.10;;
58752;SDS011;44525;46.052;13.610;2024-01-10T01:51:50;14.75;;;7.75;;
58752;SDS011;44525;46.052;13.610;2024-01-10T01:54:17;15.98;;;8.50;;
58752;SDS011;44525;46.052;13.610;2024-01-10T01:56:42;16.38;;;7.13;;
58752;SDS011;44525;46.052;13.610;2024-01-10T01:59:09;13.93;;;7.75;;
58752;SDS011;44525;46.052;13.610;2024-01-10T02:01:36;18.27;;;8.20;;
58752;SDS011;44525;46.052;13.610;2024-01-10T02:04:01;22.02;;;8.65;;
58752;SDS011;44525;46.052;13.610;2024-01-10T02:06:28;18.15;;;8.77;;
58752;SDS011;44525;46.052;13.610;2024-01-10T02:08:54;15.73;;;8.13;;
58752;SDS011;44525;46.052;13.610;2024-01-10T02:11:21;15.00;;;7.85;;
58752;SDS011;44525;46.052;13.610;2024-01-10T02:13:47;14.77;;;7.88;;
58752;SDS011;44525;46.052;13.610;2024-01-10T02:16:13;17.65;;;7.82;;
58752;SDS011;44525;46.052;13.610;2024-01-10T02:18:38;16.00;;;8.25;;
58752;SDS011;44525;46.052;13.610;2024-01-10T02:21:04;14.82;;;8.38;;
58752;SDS011;44525;46.052;13.610;2024-01-10T02:23:29;16.20;;;8.20;;
58752;SDS011;44525;46.052;13.610;2024-01-10T02:25:55;12.95;;;8.45;;
58752;SDS011;44525;46.052;13.610;2024-01-10T02:28:20;16.30;;;8.48;;
58752;SDS011;44525;46.052;13.610;2024-01-10T02:30:48;15.88;;;7.68;;
58752;SDS011;44525;46.052;13.610;2024-01-10T02:33:14;17.05;;;8.73;;
58752;SDS011;44525;46.052;13.610;2024-01-10T02:35:40;15.13;;;7.72;;
58752;SDS011;44525;46.052;13.610;2024-01-10T02:38:05;20.17;;;9.13;;
58752;SDS011;44525;46.052;13.610;2024-01-10T02:40:31;16.63;;;7.80;;
58752;SDS011;44525;46.052;13.610;2024-01-10T02:42:56;16.08;;;8.20;;
58752;SDS011;44525;46.052;13.610;2024-01-10T02:45:22;15.68;;;8.02;;
58752;SDS011;44525;46.052;13.610;2024-01-10T02:47:47;19.20;;;8.65;;
58752;SDS011;44525;46.052;13.610;2024-01-10T02:50:12;16.70;;;9.10;;
58752;SDS011;44525;46.052;13.610;2024-01-10T02:52:38;14.65;;;7.90;;
58752;SDS011;44525;46.052;13.610;2024-01-10T02:55:03;15.23;;;7.72;;
58752;SDS011;44525;46.052;13.610;2024-01-10T02:57:29;14.00;;;7.70;;
58752;SDS011;44525;46.052;13.610;2024-01-10T02:59:54;18.85;;;8.00;;
58752;SDS011;44525;46.052;13.610;2024-01-10T03:02:20;13.18;;;7.68;;
58752;SDS011;44525;46.052;13.610;2024-01-10T03:04:45;14.18;;;7.75;;
58752;SDS011;44525;46.052;13.610;2024-01-10T03:07:10;12.98;;;7.35;;
58752;SDS011;44525;46.052;13.610;2024-01-10T03:09:36;12.07;;;6.85;;
58752;SDS011;44525;46.052;13.610;2024-01-10T03:12:01;12.43;;;7.45;;
58752;SDS011;44525;46.052;13.610;2024-01-10T03:14:27;14.65;;;6.82;;
58752;SDS011;44525;46.052;13.610;2024-01-10T03:16:52;13.02;;;7.43;;
58752;SDS011;44525;46.052;13.610;2024-01-10T03:19:18;15.63;;;6.68;;
58752;SDS011;44525;46.052;13.610;2024-01-10T03:21:44;14.40;;;7.32;;
58752;SDS011;44525;46.052;13.610;2024-01-10T03:24:09;16.30;;;8.00;;
58752;SDS011;44525;46.052;13.610;2024-01-10T03:26:34;20.35;;;7.78;;
58752;SDS011;44525;46.052;13.610;2024-01-10T03:29:00;13.80;;;7.57;;
58752;SDS011;44525;46.052;13.610;2024-01-10T03:31:26;14.27;;;7.13;;
58752;SDS011;44525;46.052;13.610;2024-01-10T03:33:53;15.65;;;7.47;;
58752;SDS011;44525;46.052;13.610;2024-01-10T03:36:18;15.23;;;6.95;;
58752;SDS011;44525;46.052;13.610;2024-01-10T03:38:44;15.77;;;7.75;;
58752;SDS011;44525;46.052;13.610;2024-01-10T03:41:13;15.63;;;8.02;;
58752;SDS011;44525;46.052;13.610;2024-01-10T03:43:40;17.38;;;7.55;;
58752;SDS011;44525;46.052;13.610;2024-01-10T03:46:05;13.18;;;7.47;;
58752;SDS011;44525;46.052;13.610;2024-01-10T03:48:31;14.88;;;7.78;;
58752;SDS011;44525;46.052;13.610;2024-01-10T03:50:56;15.23;;;7.88;;
58752;SDS011;44525;46.052;13.610;2024-01-10T03:53:22;15.85;;;8.23;;
58752;SDS011;44525;46.052;13.610;2024-01-10T03:55:47;14.07;;;7.72;;
58752;SDS011;44525;46.052;13.610;2024-01-10T03:58:12;12.98;;;7.38;;
58752;SDS011;44525;46.052;13.610;2024-01-10T04:00:38;14.80;;;7.80;;
58752;SDS011;44525;46.052;13.610;2024-01-10T04:03:03;16.90;;;7.88;;
58752;SDS011;44525;46.052;13.610;2024-01-10T04:05:29;12.65;;;6.97;;
58752;SDS011;44525;46.052;13.610;2024-01-10T04:07:54;14.98;;;8.20;;
58752;SDS011;44525;46.052;13.610;2024-01-10T04:10:22;15.02;;;7.20;;
58752;SDS011;44525;46.052;13.610;2024-01-10T04:12:47;14.43;;;7.43;;
58752;SDS011;44525;46.052;13.610;2024-01-10T04:15:13;14.63;;;7.25;;
58752;SDS011;44525;46.052;13.610;2024-01-10T04:17:39;13.73;;;6.85;;
58752;SDS011;44525;46.052;13.610;2024-01-10T04:20:04;15.30;;;7.45;;
58752;SDS011;44525;46.052;13.610;2024-01-10T04:22:30;11.80;;;7.63;;
58752;SDS011;44525;46.052;13.610;2024-01-10T04:25:00;13.40;;;7.35;;
58752;SDS011;44525;46.052;13.610;2024-01-10T04:27:26;14.75;;;7.82;;
58752;SDS011;44525;46.052;13.610;2024-01-10T04:29:52;14.00;;;7.50;;
58752;SDS011;44525;46.052;13.610;2024-01-10T04:32:18;13.23;;;7.30;;
58752;SDS011;44525;46.052;13.610;2024-01-10T04:34:44;14.48;;;6.20;;
58752;SDS011;44525;46.052;13.610;2024-01-10T04:37:11;12.07;;;7.05;;
58752;SDS011;44525;46.052;13.610;2024-01-10T04:39:36;16.00;;;6.82;;
58752;SDS011;44525;46.052;13.610;2024-01-10T04:42:07;14.40;;;7.03;;
58752;SDS011;44525;46.052;13.610;2024-01-10T04:44:33;13.40;;;7.65;;
58752;SDS011;44525;46.052;13.610;2024-01-10T04:46:59;12.80;;;6.47;;
58752;SDS011;44525;46.052;13.610;2024-01-10T04:49:24;14.00;;;7.60;;
58752;SDS011;44525;46.052;13.610;2024-01-10T04:51:50;13.85;;;6.72;;
58752;SDS011;44525;46.052;13.610;2024-01-10T04:54:16;13.60;;;6.65;;
58752;SDS011;44525;46.052;13.610;2024-01-10T04:56:41;12.23;;;6.55;;
58752;SDS011;44525;46.052;13.610;2024-01-10T04:59:07;12.80;;;6.97;;
58752;SDS011;44525;46.052;13.610;2024-01-10T05:01:32;11.80;;;6.18;;
58752;SDS011;44525;46.052;13.610;2024-01-10T05:03:58;14.55;;;6.85;;
58752;SDS011;44525;46.052;13.610;2024-01-10T05:06:23;11.88;;;6.50;;
58752;SDS011;44525;46.052;13.610;2024-01-10T05:08:49;15.02;;;6.60;;
58752;SDS011;44525;46.052;13.610;2024-01-10T05:11:15;13.05;;;7.22;;
58752;SDS011;44525;46.052;13.610;2024-01-10T05:13:41;12.65;;;7.03;;
58752;SDS011;44525;46.052;13.610;2024-01-10T05:16:07;11.85;;;6.47;;
58752;SDS011;44525;46.052;13.610;2024-01-10T05:18:32;11.32;;;6.85;;
58752;SDS011;44525;46.052;13.610;2024-01-10T05:20:58;15.48;;;7.65;;
58752;SDS011;44525;46.052;13.610;2024-01-10T05:23:24;10.95;;;6.22;;
58752;SDS011;44525;46.052;13.610;2024-01-10T05:25:50;14.52;;;6.00;;
58752;SDS011;44525;46.052;13.610;2024-01-10T05:28:15;13.55;;;6.45;;
58752;SDS011;44525;46.052;13.610;2024-01-10T05:30:40;10.90;;;5.85;;
58752;SDS011;44525;46.052;13.610;2024-01-10T05:33:07;13.38;;;6.63;;
58752;SDS011;44525;46.052;13.610;2024-01-10T05:35:33;15.93;;;6.65;;
58752;SDS011;44525;46.052;13.610;2024-01-10T05:37:59;11.75;;;7.30;;
58752;SDS011;44525;46.052;13.610;2024-01-10T05:40:24;14.85;;;6.45;;
58752;SDS011;44525;46.052;13.610;2024-01-10T05:42:50;10.95;;;5.57;;
58752;SDS011;44525;46.052;13.610;2024-01-10T05:45:15;12.25;;;6.55;;
58752;SDS011;44525;46.052;13.610;2024-01-10T05:47:43;10.13;;;6.20;;
58752;SDS011;44525;46.052;13.610;2024-01-10T05:50:08;14.07;;;6.88;;
58752;SDS011;44525;46.052;13.610;2024-01-10T05:52:34;12.00;;;6.45;;
58752;SDS011;44525;46.052;13.610;2024-01-10T05:54:59;12.35;;;7.00;;
58752;SDS011;44525;46.052;13.610;2024-01-10T05:57:27;13.77;;;7.35;;
58752;SDS011;44525;46.052;13.610;2024-01-10T05:59:52;10.77;;;6.63;;
58752;SDS011;44525;46.052;13.610;2024-01-10T06:02:22;11.25;;;6.70;;
58752;SDS011;44525;46.052;13.610;2024-01-10T06:04:49;11.38;;;6.47;;
58752;SDS011;44525;46.052;13.610;2024-01-10T06:07:15;12.48;;;6.57;;
58752;SDS011;44525;46.052;13.610;2024-01-10T06:09:40;12.88;;;6.82;;
58752;SDS011;44525;46.052;13.610;2024-01-10T06:12:06;15.75;;;6.75;;
58752;SDS011;44525;46.052;13.610;2024-01-10T06:14:32;11.60;;;6.30;;
58752;SDS011;44525;46.052;13.610;2024-01-10T06:16:57;12.95;;;6.93;;
58752;SDS011;44525;46.052;13.610;2024-01-10T06:19:24;11.77;;;6.35;;
58752;SDS011;44525;46.052;13.610;2024-01-10T06:21:50;11.27;;;6.78;;
58752;SDS011;44525;46.052;13.610;2024-01-10T06:24:17;12.65;;;6.72;;
58752;SDS011;44525;46.052;13.610;2024-01-10T06:26:42;13.82;;;7.28;;
58752;SDS011;44525;46.052;13.610;2024-01-10T06:29:08;12.73;;;6.45;;
58752;SDS011;44525;46.052;13.610;2024-01-10T06:31:33;12.25;;;6.57;;
58752;SDS011;44525;46.052;13.610;2024-01-10T06:33:59;13.18;;;7.05;;
58752;SDS011;44525;46.052;13.610;2024-01-10T06:36:24;13.60;;;6.68;;
58752;SDS011;44525;46.052;13.610;2024-01-10T06:38:50;12.07;;;6.30;;
58752;SDS011;44525;46.052;13.610;2024-01-10T06:41:15;13.60;;;6.65;;
58752;SDS011;44525;46.052;13.610;2024-01-10T06:43:40;12.00;;;6.07;;
58752;SDS011;44525;46.052;13.610;2024-01-10T06:46:06;12.25;;;5.85;;
58752;SDS011;44525;46.052;13.610;2024-01-10T06:48:32;13.60;;;7.65;;
58752;SDS011;44525;46.052;13.610;2024-01-10T06:50:57;14.27;;;6.55;;
58752;SDS011;44525;46.052;13.610;2024-01-10T06:53:23;13.15;;;6.38;;
58752;SDS011;44525;46.052;13.610;2024-01-10T06:55:49;16.15;;;6.93;;
58752;SDS011;44525;46.052;13.610;2024-01-10T06:58:14;16.15;;;7.07;;
58752;SDS011;44525;46.052;13.610;2024-01-10T07:00:40;18.20;;;9.07;;
58752;SDS011;44525;46.052;13.610;2024-01-10T07:03:05;14.05;;;7.32;;
58752;SDS011;44525;46.052;13.610;2024-01-10T07:05:30;12.32;;;6.47;;
58752;SDS011;44525;46.052;13.610;2024-01-10T07:07:59;14.55;;;7.85;;
58752;SDS011;44525;46.052;13.610;2024-01-10T07:10:28;14.05;;;6.65;;
58752;SDS011;44525;46.052;13.610;2024-01-10T07:12:56;13.27;;;7.03;;
58752;SDS011;44525;46.052;13.610;2024-01-10T07:15:22;13.50;;;6.40;;
58752;SDS011;44525;46.052;13.610;2024-01-10T07:17:48;14.82;;;8.38;;
58752;SDS011;44525;46.052;13.610;2024-01-10T07:20:13;14.63;;;7.25;;
58752;SDS011;44525;46.052;13.610;2024-01-10T07:22:39;12.15;;;6.32;;
58752;SDS011;44525;46.052;13.610;2024-01-10T07:25:07;12.63;;;7.03;;
58752;SDS011;44525;46.052;13.610;2024-01-10T07:27:34;15.35;;;7.13;;
58752;SDS011;44525;46.052;13.610;2024-01-10T07:30:02;15.00;;;8.45;;
58752;SDS011;44525;46.052;13.610;2024-01-10T07:32:38;13.00;;;6.65;;
58752;SDS011;44525;46.052;13.610;2024-01-10T07:35:06;11.43;;;6.47;;
58752;SDS011;44525;46.052;13.610;2024-01-10T07:37:35;13.00;;;6.63;;
58752;SDS011;44525;46.052;13.610;2024-01-10T07:40:01;13.73;;;7.72;;
58752;SDS011;44525;46.052;13.610;2024-01-10T07:42:28;16.73;;;7.97;;
58752;SDS011;44525;46.052;13.610;2024-01-10T07:44:54;15.35;;;7.07;;
58752;SDS011;44525;46.052;13.610;2024-01-10T07:47:19;14.15;;;7.00;;
58752;SDS011;44525;46.052;13.610;2024-01-10T07:49:44;12.20;;;6.15;;
58752;SDS011;44525;46.052;13.610;2024-01-10T07:52:10;12.50;;;6.50;;
58752;SDS011;44525;46.052;13.610;2024-01-10T07:54:35;14.05;;;6.18;;
58752;SDS011;44525;46.052;13.610;2024-01-10T07:57:01;12.32;;;6.85;;
58752;SDS011;44525;46.052;13.610;2024-01-10T07:59:27;12.65;;;6.78;;
58752;SDS011;44525;46.052;13.610;2024-01-10T08:01:55;11.88;;;6.20;;
58752;SDS011;44525;46.052;13.610;2024-01-10T08:04:23;12.70;;;6.47;;
58752;SDS011;44525;46.052;13.610;2024-01-10T08:06:49;10.73;;;5.50;;
58752;SDS011;44525;46.052;13.610;2024-01-10T08:09:15;11.18;;;6.32;;
58752;SDS011;44525;46.052;13.610;2024-01-10T08:11:40;10.40;;;6.63;;
58752;SDS011;44525;46.052;13.610;2024-01-10T08:14:05;10.68;;;5.53;;
58752;SDS011;44525;46.052;13.610;2024-01-10T08:16:31;13.05;;;6.22;;
58752;SDS011;44525;46.052;13.610;2024-01-10T08:18:57;12.38;;;6.05;;
58752;SDS011;44525;46.052;13.610;2024-01-10T08:21:24;12.43;;;6.18;;
58752;SDS011;44525;46.052;13.610;2024-01-10T08:23:50;13.77;;;6.80;;
58752;SDS011;44525;46.052;13.610;2024-01-10T08:26:15;10.50;;;5.65;;
58752;SDS011;44525;46.052;13.610;2024-01-10T08:28:40;14.35;;;6.32;;
58752;SDS011;44525;46.052;13.610;2024-01-10T08:31:07;12.45;;;5.88;;
58752;SDS011;44525;46.052;13.610;2024-01-10T08:33:33;8.48;;;5.32;;
58752;SDS011;44525;46.052;13.610;2024-01-10T08:35:59;11.20;;;6.45;;
58752;SDS011;44525;46.052;13.610;2024-01-10T08:38:24;19.30;;;7.00;;
58752;SDS011;44525;46.052;13.610;2024-01-10T08:40:49;11.88;;;7.22;;
58752;SDS011;44525;46.052;13.610;2024-01-10T08:43:15;10.45;;;6.45;;
58752;SDS011;44525;46.052;13.610;2024-01-10T08:45:40;12.02;;;6.57;;
58752;SDS011;44525;46.052;13.610;2024-01-10T08:48:05;13.23;;;6.35;;
58752;SDS011;44525;46.052;13.610;2024-01-10T08:50:35;10.80;;;6.05;;
58752;SDS011;44525;46.052;13.610;2024-01-10T08:53:01;11.02;;;5.45;;
58752;SDS011;44525;46.052;13.610;2024-01-10T08:55:29;12.77;;;6.68;;
58752;SDS011;44525;46.052;13.610;2024-01-10T08:57:55;10.90;;;6.30;;
58752;SDS011;44525;46.052;13.610;2024-01-10T09:00:20;13.02;;;6.25;;
58752;SDS011;44525;46.052;13.610;2024-01-10T09:02:46;13.43;;;6.93;;
58752;SDS011;44525;46.052;13.610;2024-01-10T09:05:12;9.65;;;6.25;;
58752;SDS011;44525;46.052;13.610;2024-01-10T09:07:37;10.25;;;5.78;;
58752;SDS011;44525;46.052;13.610;2024-01-10T09:10:03;10.50;;;5.25;;
58752;SDS011;44525;46.052;13.610;2024-01-10T09:12:30;11.32;;;5.55;;
58752;SDS011;44525;46.052;13.610;2024-01-10T09:14:56;12.50;;;6.15;;
58752;SDS011;44525;46.052;13.610;2024-01-10T09:17:21;11.07;;;5.93;;
58752;SDS011;44525;46.052;13.610;2024-01-10T09:19:47;13.25;;;6.47;;
58752;SDS011;44525;46.052;13.610;2024-01-10T09:22:12;10.18;;;5.93;;
58752;SDS011;44525;46.052;13.610;2024-01-10T09:24:38;9.43;;;5.32;;
58752;SDS011;44525;46.052;13.610;2024-01-10T09:27:04;10.20;;;5.32;;
58752;SDS011;44525;46.052;13.610;2024-01-10T09:29:29;13.10;;;6.00;;
58752;SDS011;44525;46.052;13.610;2024-01-10T09:31:56;9.85;;;5.20;;
58752;SDS011;44525;46.052;13.610;2024-01-10T09:34:22;13.05;;;5.70;;
58752;SDS011;44525;46.052;13.610;2024-01-10T09:36:47;9.02;;;5.40;;
58752;SDS011;44525;46.052;13.610;2024-01-10T09:39:13;10.00;;;5.63;;
58752;SDS011;44525;46.052;13.610;2024-01-10T09:41:45;11.65;;;6.10;;
58752;SDS011;44525;46.052;13.610;2024-01-10T09:44:15;14.65;;;6.18;;
58752;SDS011;44525;46.052;13.610;2024-01-10T09:46:43;14.50;;;7.25;;
58752;SDS011;44525;46.052;13.610;2024-01-10T09:49:13;10.05;;;5.78;;
58752;SDS011;44525;46.052;13.610;2024-01-10T09:51:39;11.70;;;6.47;;
58752;SDS011;44525;46.052;13.610;2024-01-10T09:54:04;12.18;;;5.75;;
58752;SDS011;44525;46.052;13.610;2024-01-10T09:56:30;11.02;;;6.20;;
58752;SDS011;44525;46.052;13.610;2024-01-10T09:58:58;11.55;;;6.07;;
58752;SDS011;44525;46.052;13.610;2024-01-10T10:01:25;10.40;;;5.65;;
58752;SDS011;44525;46.052;13.610;2024-01-10T10:03:52;11.80;;;5.53;;
58752;SDS011;44525;46.052;13.610;2024-01-10T10:06:19;10.60;;;6.95;;
58752;SDS011;44525;46.052;13.610;2024-01-10T10:08:45;10.68;;;5.90;;
58752;SDS011;44525;46.052;13.610;2024-01-10T10:11:13;13.50;;;6.47;;
58752;SDS011;44525;46.052;13.610;2024-01-10T10:13:39;11.63;;;6.18;;
58752;SDS011;44525;46.052;13.610;2024-01-10T10:16:07;13.00;;;6.20;;
58752;SDS011;44525;46.052;13.610;2024-01-10T10:18:34;10.68;;;5.78;;
58752;SDS011;44525;46.052;13.610;2024-01-10T10:23:39;19.00;;;8.48;;
58752;SDS011;44525;46.052;13.610;2024-01-10T10:26:15;11.27;;;5.82;;
58752;SDS011;44525;46.052;13.610;2024-01-10T10:28:45;12.27;;;7.13;;
58752;SDS011;44525;46.052;13.610;2024-01-10T10:31:12;12.90;;;6.40;;
58752;SDS011;44525;46.052;13.610;2024-01-10T10:33:37;10.80;;;6.20;;
58752;SDS011;44525;46.052;13.610;2024-01-10T10:36:03;8.82;;;6.30;;
58752;SDS011;44525;46.052;13.610;2024-01-10T10:38:29;12.27;;;6.60;;
58752;SDS011;44525;46.052;13.610;2024-01-10T10:40:54;9.45;;;5.50;;
58752;SDS011;44525;46.052;13.610;2024-01-10T10:43:20;11.20;;;6.13;;
58752;SDS011;44525;46.052;13.610;2024-01-10T10:45:47;11.10;;;5.65;;
58752;SDS011;44525;46.052;13.610;2024-01-10T10:48:16;9.82;;;6.07;;
58752;SDS011;44525;46.052;13.610;2024-01-10T10:50:43;9.13;;;5.25;;
58752;SDS011;44525;46.052;13.610;2024-01-10T10:53:17;7.82;;;4.80;;
58752;SDS011;44525;46.052;13.610;2024-01-10T10:55:44;9.45;;;5.63;;
58752;SDS011;44525;46.052;13.610;2024-01-10T10:58:12;9.40;;;5.43;;
58752;SDS011;44525;46.052;13.610;2024-01-10T11:00:39;7.80;;;5.13;;
58752;SDS011;44525;46.052;13.610;2024-01-10T11:03:07;8.57;;;5.00;;
58752;SDS011;44525;46.052;13.610;2024-01-10T11:05:35;12.55;;;6.80;;
58752;SDS011;44525;46.052;13.610;2024-01-10T11:08:05;8.65;;;5.10;;
58752;SDS011;44525;46.052;13.610;2024-01-10T11:10:34;13.65;;;6.55;;
58752;SDS011;44525;46.052;13.610;2024-01-10T11:13:08;10.07;;;6.15;;
58752;SDS011;44525;46.052;13.610;2024-01-10T11:16:25;8.77;;;4.90;;
58752;SDS011;44525;46.052;13.610;2024-01-10T11:24:30;9.52;;;5.43;;
58752;SDS011;44525;46.052;13.610;2024-01-10T11:29:51;10.73;;;5.97;;
58752;SDS011;44525;46.052;13.610;2024-01-10T11:32:17;11.63;;;5.90;;
58752;SDS011;44525;46.052;13.610;2024-01-10T11:37:27;8.90;;;5.43;;
58752;SDS011;44525;46.052;13.610;2024-01-10T11:39:54;11.27;;;6.10;;
58752;SDS011;44525;46.052;13.610;2024-01-10T11:42:23;10.63;;;5.82;;
58752;SDS011;44525;46.052;13.610;2024-01-10T11:45:05;10.93;;;5.90;;
58752;SDS011;44525;46.052;13.610;2024-01-10T11:47:31;8.60;;;5.25;;
58752;SDS011;44525;46.052;13.610;2024-01-10T11:49:56;11.60;;;5.50;;
58752;SDS011;44525;46.052;13.610;2024-01-10T11:52:23;11.50;;;6.75;;
58752;SDS011;44525;46.052;13.610;2024-01-10T11:54:50;7.13;;;4.80;;
58752;SDS011;44525;46.052;13.610;2024-01-10T11:57:21;7.75;;;5.07;;
58752;SDS011;44525;46.052;13.610;2024-01-10T11:59:50;8.65;;;5.18;;
58752;SDS011;44525;46.052;13.610;2024-01-10T12:02:18;9.90;;;5.55;;
58752;SDS011;44525;46.052;13.610;2024-01-10T12:04:44;7.88;;;5.15;;
58752;SDS011;44525;46.052;13.610;2024-01-10T12:07:12;10.38;;;5.38;;
58752;SDS011;44525;46.052;13.610;2024-01-10T12:09:38;7.43;;;4.35;;
58752;SDS011;44525;46.052;13.610;2024-01-10T12:12:04;10.30;;;5.63;;
58752;SDS011;44525;46.052;13.610;2024-01-10T12:14:31;9.48;;;5.60;;
58752;SDS011;44525;46.052;13.610;2024-01-10T12:16:56;9.25;;;4.32;;
58752;SDS011;44525;46.052;13.610;2024-01-10T12:19:22;8.00;;;5.20;;
58752;SDS011;44525;46.052;13.610;2024-01-10T12:21:48;10.75;;;5.50;;
58752;SDS011;44525;46.052;13.610;2024-01-10T12:24:14;9.00;;;5.45;;
58752;SDS011;44525;46.052;13.610;2024-01-10T12:26:43;11.05;;;6.63;;
58752;SDS011;44525;46.052;13.610;2024-01-10T12:29:10;10.32;;;6.13;;
58752;SDS011;44525;46.052;13.610;2024-01-10T12:31:35;9.27;;;5.40;;
58752;SDS011;44525;46.052;13.610;2024-01-10T12:34:02;7.15;;;4.30;;
58752;SDS011;44525;46.052;13.610;2024-01-10T12:36:28;7.03;;;5.00;;
58752;SDS011;44525;46.052;13.610;2024-01-10T12:38:53;9.23;;;5.32;;
58752;SDS011;44525;46.052;13.610;2024-01-10T12:41:19;11.07;;;5.93;;
58752;SDS011;44525;46.052;13.610;2024-01-10T12:43:53;9.98;;;4.93;;
58752;SDS011;44525;46.052;13.610;2024-01-10T12:46:22;10.82;;;4.47;;
58752;SDS011;44525;46.052;13.610;2024-01-10T12:49:00;9.73;;;6.15;;
58752;SDS011;44525;46.052;13.610;2024-01-10T12:51:33;12.90;;;7.25;;
58752;SDS011;44525;46.052;13.610;2024-01-10T12:54:01;9.30;;;5.60;;
58752;SDS011;44525;46.052;13.610;2024-01-10T12:56:28;7.93;;;4.72;;
58752;SDS011;44525;46.052;13.610;2024-01-10T12:58:55;8.77;;;5.45;;
58752;SDS011;44525;46.052;13.610;2024-01-10T13:01:21;10.20;;;5.80;;
58752;SDS011;44525;46.052;13.610;2024-01-10T13:03:47;11.13;;;5.50;;
58752;SDS011;44525;46.052;13.610;2024-01-10T13:06:13;8.98;;;5.03;;
58752;SDS011;44525;46.052;13.610;2024-01-10T13:08:39;7.07;;;4.57;;
58752;SDS011;44525;46.052;13.610;2024-01-10T13:11:04;14.70;;;7.40;;
58752;SDS011;44525;46.052;13.610;2024-01-10T13:13:34;12.32;;;5.97;;
58752;SDS011;44525;46.052;13.610;2024-01-10T13:16:00;11.63;;;7.45;;
58752;SDS011;44525;46.052;13.610;2024-01-10T13:18:26;7.57;;;4.82;;
58752;SDS011;44525;46.052;13.610;2024-01-10T13:20:53;9.10;;;5.35;;
58752;SDS011;44525;46.052;13.610;2024-01-10T13:23:19;9.05;;;5.38;;
58752;SDS011;44525;46.052;13.610;2024-01-10T13:25:47;13.40;;;7.90;;
58752;SDS011;44525;46.052;13.610;2024-01-10T13:28:13;10.30;;;6.18;;
58752;SDS011;44525;46.052;13.610;2024-01-10T13:30:39;8.75;;;5.07;;
58752;SDS011;44525;46.052;13.610;2024-01-10T13:33:08;10.50;;;5.65;;
58752;SDS011;44525;46.052;13.610;2024-01-10T13:35:37;8.68;;;4.80;;
58752;SDS011;44525;46.052;13.610;2024-01-10T13:38:03;8.85;;;4.40;;
58752;SDS011;44525;46.052;13.610;2024-01-10T13:40:29;8.45;;;4.85;;
58752;SDS011;44525;46.052;13.610;2024-01-10T13:42:56;7.50;;;4.70;;
58752;SDS011;44525;46.052;13.610;2024-01-10T13:45:22;9.13;;;4.93;;
58752;SDS011;44525;46.052;13.610;2024-01-10T13:47:48;8.48;;;5.22;;
58752;SDS011;44525;46.052;13.610;2024-01-10T13:50:16;7.25;;;4.60;;
58752;SDS011;44525;46.052;13.610;2024-01-10T13:52:41;13.10;;;6.65;;
58752;SDS011;44525;46.052;13.610;2024-01-10T13:55:08;13.10;;;7.50;;
58752;SDS011;44525;46.052;13.610;2024-01-10T13:57:34;15.00;;;8.35;;
58752;SDS011;44525;46.052;13.610;2024-01-10T14:00:00;8.65;;;5.10;;
58752;SDS011;44525;46.052;13.610;2024-01-10T14:02:27;11.15;;;6.22;;
58752;SDS011;44525;46.052;13.610;2024-01-10T14:04:52;8.95;;;5.57;;
58752;SDS011;44525;46.052;13.610;2024-01-10T14:07:24;11.57;;;6.30;;
58752;SDS011;44525;46.052;13.610;2024-01-10T14:09:50;10.38;;;5.97;;
58752;SDS011;44525;46.052;13.610;2024-01-10T14:12:19;11.70;;;7.43;;
58752;SDS011;44525;46.052;13.610;2024-01-10T14:14:45;12.48;;;6.53;;
58752;SDS011;44525;46.052;13.610;2024-01-10T14:17:10;11.90;;;7.40;;
58752;SDS011;44525;46.052;13.610;2024-01-10T14:19:35;9.85;;;5.85;;
58752;SDS011;44525;46.052;13.610;2024-01-10T14:22:01;17.40;;;8.25;;
58752;SDS011;44525;46.052;13.610;2024-01-10T14:24:26;10.73;;;6.15;;
58752;SDS011;44525;46.052;13.610;2024-01-10T14:26:51;10.82;;;6.55;;
58752;SDS011;44525;46.052;13.610;2024-01-10T14:29:17;11.50;;;6.32;;
58752;SDS011;44525;46.052;13.610;2024-01-10T14:31:42;8.40;;;5.15;;